Time;durP1;ratioP1;P1;durP2;ratioP2;P2;SDS_P1;SDS_P2;PMS_P1;PMS_P2;Temp;Humidity;BMP_temperature;BMP_pressure;BME280_temperature;BME280_humidity;BME280_pressure;Samples;Min_cycle;Max_cycle;Signal;HPM_P1;HPM_P2
2022/05/15 00:02:05;;;;;;;3.13;1.70;;;12.60;99.90;;;;;;6291552;22;20022;-71
2022/05/15 00:04:31;;;;;;;1.98;1.50;;;12.70;99.90;;;;;;6295729;22;20015;-70
2022/05/15 00:06:57;;;;;;;2.28;1.42;;;12.70;99.80;;;;;;6292504;22;20030;-70
2022/05/15 00:09:23;;;;;;;2.03;1.50;;;12.80;99.90;;;;;;6291785;22;20190;-70
2022/05/15 00:11:49;;;;;;;1.50;1.40;;;12.70;99.80;;;;;;6289251;22;20066;-70
2022/05/15 00:14:15;;;;;;;5.93;1.30;;;12.70;99.90;;;;;;6293284;22;20096;-70
2022/05/15 00:16:41;;;;;;;1.48;1.20;;;12.60;99.90;;;;;;6293143;22;20027;-70
2022/05/15 00:19:06;;;;;;;1.73;1.35;;;12.60;99.90;;;;;;6290859;22;20003;-78
2022/05/15 00:21:33;;;;;;;2.13;1.80;;;12.60;99.90;;;;;;6293996;22;20007;-77
2022/05/15 00:24:01;;;;;;;3.08;1.30;;;12.60;99.90;;;;;;6293839;22;20002;-79
2022/05/15 00:26:27;;;;;;;3.38;1.30;;;12.60;99.90;;;;;;6290087;22;20673;-78
2022/05/15 00:28:53;;;;;;;3.25;1.75;;;12.60;99.90;;;;;;6294879;22;20007;-77
2022/05/15 00:31:19;;;;;;;3.33;1.83;;;12.50;99.90;;;;;;6296250;22;20695;-78
2022/05/15 00:33:45;;;;;;;2.22;1.50;;;12.50;99.90;;;;;;6293020;22;20422;-79
2022/05/15 00:36:12;;;;;;;5.53;1.20;;;12.50;99.90;;;;;;6291364;22;20046;-77
2022/05/15 00:38:38;;;;;;;2.22;1.33;;;12.40;99.90;;;;;;6292601;22;19999;-70
2022/05/15 00:41:04;;;;;;;2.78;1.40;;;12.20;99.90;;;;;;6291773;22;20381;-71
2022/05/15 00:43:42;;;;;;;4.45;1.20;;;12.10;99.90;;;;;;6291401;22;20041;-71
2022/05/15 00:46:12;;;;;;;12.15;3.28;;;12.10;99.90;;;;;;6294477;22;20003;-70
2022/05/15 00:48:38;;;;;;;2.45;1.45;;;12.10;99.90;;;;;;6290315;22;20078;-70
2022/05/15 00:51:11;;;;;;;2.10;1.52;;;12.20;99.90;;;;;;6296978;22;20729;-71
2022/05/15 00:53:38;;;;;;;2.03;1.40;;;12.20;99.90;;;;;;6292889;22;20010;-70
2022/05/15 00:56:04;;;;;;;3.03;1.23;;;12.20;99.90;;;;;;6292620;22;20046;-70
2022/05/15 00:58:33;;;;;;;3.53;1.42;;;12.20;99.90;;;;;;6295290;22;20003;-79
2022/05/15 01:00:58;;;;;;;6.70;2.25;;;12.30;99.90;;;;;;6291863;22;19999;-76
2022/05/15 01:03:24;;;;;;;4.18;1.30;;;12.30;99.90;;;;;;6292649;22;20015;-75
2022/05/15 01:05:53;;;;;;;5.07;1.58;;;12.20;99.90;;;;;;6295960;22;20014;-74
2022/05/15 01:08:19;;;;;;;1.30;1.20;;;12.10;99.90;;;;;;6291931;22;20668;-77
2022/05/15 01:10:58;;;;;;;2.00;1.13;;;12.00;99.90;;;;;;6291169;22;20729;-75
2022/05/15 01:13:27;;;;;;;5.60;1.60;;;11.90;99.90;;;;;;6293081;22;20007;-75
2022/05/15 01:15:53;;;;;;;2.88;1.40;;;11.70;99.90;;;;;;6294262;22;20022;-75
2022/05/15 01:18:23;;;;;;;2.95;1.30;;;11.50;99.90;;;;;;6293077;22;20465;-74
2022/05/15 01:20:56;;;;;;;1.55;1.45;;;11.30;99.90;;;;;;6292175;22;20007;-73
2022/05/15 01:23:22;;;;;;;2.28;1.40;;;11.10;99.90;;;;;;6292032;22;20286;-75
2022/05/15 01:25:48;;;;;;;1.52;1.42;;;11.00;99.90;;;;;;6291101;22;20006;-75
2022/05/15 01:28:18;;;;;;;1.85;1.30;;;11.00;99.90;;;;;;6292477;22;20003;-75
2022/05/15 01:30:47;;;;;;;2.08;1.50;;;11.10;99.90;;;;;;6295829;22;20542;-75
2022/05/15 01:33:13;;;;;;;1.40;1.30;;;11.30;99.90;;;;;;6293973;22;20052;-75
2022/05/15 01:35:39;;;;;;;4.07;1.20;;;11.40;99.90;;;;;;6295453;22;20340;-68
2022/05/15 01:38:06;;;;;;;1.33;1.23;;;11.50;99.90;;;;;;6292426;22;20008;-68
2022/05/15 01:40:33;;;;;;;1.58;1.48;;;11.50;99.90;;;;;;6290610;22;20056;-68
2022/05/15 01:43:00;;;;;;;2.85;1.42;;;11.60;99.90;;;;;;6295181;22;20068;-68
2022/05/15 01:45:25;;;;;;;4.13;1.60;;;11.60;99.90;;;;;;6296780;22;20011;-68
2022/05/15 01:47:51;;;;;;;2.08;1.40;;;11.60;99.90;;;;;;6294370;22;20018;-68
2022/05/15 01:50:17;;;;;;;2.40;1.48;;;11.50;99.90;;;;;;6296829;22;20003;-68
2022/05/15 01:52:44;;;;;;;3.17;1.30;;;11.50;99.90;;;;;;6293609;22;20002;-69
2022/05/15 01:55:11;;;;;;;2.22;1.67;;;11.50;99.90;;;;;;6293747;22;20113;-68
2022/05/15 01:57:37;;;;;;;3.33;1.33;;;11.60;99.90;;;;;;6295796;22;20476;-68
2022/05/15 02:00:06;;;;;;;1.85;1.50;;;11.50;99.90;;;;;;6295227;22;20003;-68
2022/05/15 02:02:32;;;;;;;2.83;1.20;;;11.30;99.90;;;;;;6292654;22;20095;-68
2022/05/15 02:04:59;;;;;;;1.17;1.08;;;11.20;99.90;;;;;;6291007;22;20082;-67
2022/05/15 02:07:24;;;;;;;1.17;1.00;;;11.20;99.90;;;;;;6291532;22;20003;-68
2022/05/15 02:09:50;;;;;;;2.55;1.00;;;11.20;99.90;;;;;;6286672;22;20104;-67
2022/05/15 02:12:16;;;;;;;1.55;1.15;;;11.30;99.90;;;;;;6292555;22;20065;-67
2022/05/15 02:14:41;;;;;;;1.75;1.23;;;11.30;99.90;;;;;;6290997;22;20015;-76
2022/05/15 02:17:07;;;;;;;1.73;1.17;;;11.40;99.90;;;;;;6288125;22;20014;-75
2022/05/15 02:19:33;;;;;;;2.40;1.33;;;11.40;99.90;;;;;;6290416;22;20007;-76
2022/05/15 02:21:59;;;;;;;3.85;1.50;;;11.50;99.90;;;;;;6289909;22;20052;-76
2022/05/15 02:24:25;;;;;;;1.65;1.20;;;11.50;99.90;;;;;;6291558;22;20022;-76
2022/05/15 02:26:51;;;;;;;1.80;1.00;;;11.50;99.90;;;;;;6293595;22;20027;-76
2022/05/15 02:29:17;;;;;;;1.30;1.08;;;11.40;99.90;;;;;;6293878;22;20031;-76
2022/05/15 02:31:42;;;;;;;1.55;1.00;;;11.10;99.90;;;;;;6293510;22;20019;-75
2022/05/15 02:34:08;;;;;;;2.28;1.08;;;10.80;99.90;;;;;;6293504;22;20008;-75
2022/05/15 02:36:34;;;;;;;1.90;1.15;;;10.80;99.90;;;;;;6293151;22;20011;-75
2022/05/15 02:39:00;;;;;;;2.60;1.33;;;10.80;99.90;;;;;;6293437;22;20003;-75
2022/05/15 02:41:26;;;;;;;2.03;1.30;;;10.80;99.90;;;;;;6292308;22;20015;-75
2022/05/15 02:43:52;;;;;;;2.92;1.38;;;10.80;99.90;;;;;;6292070;22;20363;-75
2022/05/15 02:46:18;;;;;;;1.42;1.17;;;10.80;99.90;;;;;;6292272;22;20003;-75
2022/05/15 02:51:28;;;;;;;3.25;1.40;;;10.70;99.90;;;;;;6292541;22;20017;-67
2022/05/15 02:53:54;;;;;;;2.63;1.60;;;10.70;99.90;;;;;;6289337;22;20074;-67
2022/05/15 02:56:22;;;;;;;2.30;1.40;;;10.60;99.90;;;;;;6289751;22;20756;-67
2022/05/15 02:58:48;;;;;;;1.42;1.02;;;10.60;99.90;;;;;;6289821;22;20185;-67
2022/05/15 03:01:15;;;;;;;5.45;1.58;;;10.60;99.90;;;;;;6290139;22;20096;-67
2022/05/15 03:03:40;;;;;;;2.45;1.48;;;10.70;99.90;;;;;;6290399;22;20464;-67
2022/05/15 03:06:07;;;;;;;1.98;1.25;;;10.70;99.90;;;;;;6291589;22;20007;-68
2022/05/15 03:08:38;;;;;;;2.58;1.60;;;10.70;99.90;;;;;;6294447;22;20078;-67
2022/05/15 03:11:04;;;;;;;1.30;1.20;;;10.80;99.90;;;;;;6287961;22;20007;-67
2022/05/15 03:13:30;;;;;;;5.57;1.60;;;10.90;99.90;;;;;;6291818;22;20696;-67
2022/05/15 03:15:56;;;;;;;4.65;1.17;;;11.00;99.90;;;;;;6291042;22;20069;-68
2022/05/15 03:18:22;;;;;;;2.08;1.27;;;11.00;99.90;;;;;;6294051;22;20480;-68
2022/05/15 03:20:48;;;;;;;0.98;0.98;;;11.00;99.90;;;;;;6294083;22;20034;-68
2022/05/15 03:23:14;;;;;;;2.20;1.30;;;10.80;99.90;;;;;;6288845;22;20003;-67
2022/05/15 03:25:40;;;;;;;3.92;1.60;;;10.80;99.90;;;;;;6289452;22;20029;-68
2022/05/15 03:28:09;;;;;;;2.13;1.15;;;10.90;99.90;;;;;;6292755;22;20014;-68
2022/05/15 03:30:40;;;;;;;1.52;1.00;;;10.90;99.90;;;;;;6294622;22;20011;-76
2022/05/15 03:33:08;;;;;;;3.30;1.95;;;10.90;99.90;;;;;;6293203;22;20026;-76
2022/05/15 03:35:35;;;;;;;3.50;1.30;;;10.80;99.90;;;;;;6292760;22;20318;-76
2022/05/15 03:38:01;;;;;;;3.70;1.38;;;10.80;99.90;;;;;;6290560;22;20003;-75
2022/05/15 03:40:27;;;;;;;3.15;1.20;;;10.80;99.90;;;;;;6289481;22;20018;-76
2022/05/15 03:42:53;;;;;;;3.25;1.27;;;10.90;99.90;;;;;;6294866;22;20304;-76
2022/05/15 03:45:19;;;;;;;1.63;1.25;;;10.80;99.90;;;;;;6294012;22;20003;-76
2022/05/15 03:47:53;;;;;;;1.83;1.55;;;10.80;99.90;;;;;;6291964;22;20011;-76
2022/05/15 03:50:22;;;;;;;3.80;1.30;;;10.80;99.90;;;;;;6292302;22;20007;-76
2022/05/15 03:52:47;;;;;;;3.63;1.50;;;10.70;99.90;;;;;;6292691;22;20007;-76
2022/05/15 03:55:13;;;;;;;6.47;1.38;;;10.50;99.90;;;;;;6291794;22;20094;-76
2022/05/15 03:57:40;;;;;;;2.63;1.45;;;10.60;99.90;;;;;;6293664;22;20004;-76
2022/05/15 04:00:10;;;;;;;3.40;1.60;;;10.60;99.90;;;;;;6292069;22;20034;-76
2022/05/15 04:02:37;;;;;;;3.28;1.50;;;10.70;99.90;;;;;;6294439;22;20018;-76
2022/05/15 04:05:03;;;;;;;2.50;1.40;;;10.80;99.90;;;;;;6296405;22;20018;-77
2022/05/15 04:07:29;;;;;;;2.50;1.77;;;10.90;99.90;;;;;;6295589;22;20003;-76
2022/05/15 04:09:55;;;;;;;1.83;1.60;;;10.90;99.90;;;;;;6292493;22;20937;-76
2022/05/15 04:12:20;;;;;;;5.40;1.77;;;11.00;99.90;;;;;;6293554;22;20003;-76
2022/05/15 04:14:46;;;;;;;6.03;1.73;;;11.00;99.90;;;;;;6294654;22;20026;-76
2022/05/15 04:17:12;;;;;;;1.90;1.80;;;11.10;99.90;;;;;;6294133;22;20014;-77
2022/05/15 04:19:38;;;;;;;2.72;1.58;;;11.30;99.90;;;;;;6294475;22;20569;-76
2022/05/15 04:22:05;;;;;;;3.50;1.60;;;11.40;99.90;;;;;;6293732;22;20057;-76
2022/05/15 04:24:32;;;;;;;4.65;1.55;;;11.60;99.90;;;;;;6291069;22;20551;-75
2022/05/15 04:26:59;;;;;;;2.13;1.40;;;11.60;99.90;;;;;;6294034;22;20327;-77
2022/05/15 04:29:25;;;;;;;1.73;1.63;;;11.70;99.90;;;;;;6296160;22;20064;-69
2022/05/15 04:31:55;;;;;;;5.65;1.58;;;11.70;99.90;;;;;;6294928;22;20016;-68
2022/05/15 04:34:26;;;;;;;4.25;1.40;;;11.80;99.90;;;;;;6297315;22;20436;-68
2022/05/15 04:36:52;;;;;;;3.45;1.25;;;11.80;99.90;;;;;;6296298;22;20098;-68
2022/05/15 04:39:19;;;;;;;4.35;1.70;;;11.90;99.90;;;;;;6295949;22;20007;-67
2022/05/15 04:41:45;;;;;;;2.47;1.50;;;12.10;99.90;;;;;;6293184;22;20548;-68
2022/05/15 04:44:11;;;;;;;2.78;1.65;;;12.30;99.90;;;;;;6292995;22;20006;-68
2022/05/15 04:46:37;;;;;;;4.47;1.67;;;12.50;99.90;;;;;;6294036;22;20018;-68
2022/05/15 04:49:05;;;;;;;2.47;1.50;;;12.70;99.90;;;;;;6293560;22;20003;-68
2022/05/15 04:51:31;;;;;;;2.08;1.20;;;12.90;99.90;;;;;;6295833;22;20073;-68
2022/05/15 04:53:57;;;;;;;3.40;1.23;;;13.10;99.90;;;;;;6295721;22;20013;-69
2022/05/15 04:56:23;;;;;;;1.75;1.42;;;13.20;99.90;;;;;;6295518;22;20015;-68
2022/05/15 04:58:49;;;;;;;2.97;1.50;;;13.30;99.90;;;;;;6292981;22;20026;-69
2022/05/15 05:01:15;;;;;;;1.88;1.63;;;13.50;99.90;;;;;;6295285;22;20011;-69
2022/05/15 05:03:42;;;;;;;5.90;1.80;;;13.60;99.90;;;;;;6295978;22;20014;-69
2022/05/15 05:06:08;;;;;;;2.63;1.20;;;13.70;99.90;;;;;;6296767;22;20007;-69
2022/05/15 05:08:34;;;;;;;1.70;1.60;;;13.90;99.90;;;;;;6294598;22;20082;-69
2022/05/15 05:10:59;;;;;;;5.65;2.55;;;14.10;99.90;;;;;;6291581;22;20031;-68
2022/05/15 05:13:25;;;;;;;1.83;1.40;;;14.30;99.90;;;;;;6290655;22;20099;-68
2022/05/15 05:15:51;;;;;;;7.97;1.75;;;14.40;99.90;;;;;;6294556;22;20016;-69
2022/05/15 05:18:17;;;;;;;3.47;1.42;;;14.50;99.90;;;;;;6293334;22;20007;-69
2022/05/15 05:20:45;;;;;;;3.58;1.67;;;14.70;99.90;;;;;;6292502;22;20010;-69
2022/05/15 05:23:12;;;;;;;3.20;1.35;;;14.90;99.90;;;;;;6296561;22;20296;-78
2022/05/15 05:25:38;;;;;;;3.33;1.60;;;15.10;99.90;;;;;;6295811;22;20348;-69
2022/05/15 05:28:04;;;;;;;5.97;1.63;;;15.30;99.90;;;;;;6292273;22;20007;-68
2022/05/15 05:30:30;;;;;;;4.22;1.30;;;15.50;99.90;;;;;;6294172;22;20014;-69
2022/05/15 05:32:56;;;;;;;2.78;1.67;;;15.70;98.60;;;;;;6288515;22;20023;-69
2022/05/15 05:35:23;;;;;;;2.97;1.25;;;15.90;98.90;;;;;;6292937;22;20026;-68
2022/05/15 05:37:50;;;;;;;2.80;1.45;;;16.20;98.80;;;;;;6293442;22;20007;-69
2022/05/15 05:40:16;;;;;;;4.80;1.42;;;16.30;98.70;;;;;;6292452;22;20059;-69
2022/05/15 05:42:42;;;;;;;2.53;1.65;;;16.50;98.90;;;;;;6291827;22;20086;-69
2022/05/15 05:45:07;;;;;;;4.50;1.50;;;16.60;99.30;;;;;;6291351;22;20031;-69
2022/05/15 05:47:34;;;;;;;5.75;1.73;;;16.70;99.30;;;;;;6296412;22;19995;-69
2022/05/15 05:49:59;;;;;;;2.88;1.80;;;16.80;99.20;;;;;;6295898;22;20018;-69
2022/05/15 05:52:25;;;;;;;3.55;1.92;;;16.80;99.90;;;;;;6294536;22;20318;-69
2022/05/15 05:54:52;;;;;;;4.43;1.60;;;16.90;99.90;;;;;;6291792;22;20019;-70
2022/05/15 05:57:17;;;;;;;3.00;1.85;;;17.00;99.90;;;;;;6294804;22;20011;-69
2022/05/15 05:59:43;;;;;;;5.43;1.80;;;17.10;99.90;;;;;;6296647;22;20011;-69
2022/05/15 06:02:09;;;;;;;2.47;1.48;;;17.30;99.90;;;;;;6294694;22;19999;-69
2022/05/15 06:04:42;;;;;;;3.28;1.40;;;17.50;99.90;;;;;;6291246;22;20443;-69
2022/05/15 06:07:11;;;;;;;5.03;1.50;;;17.60;99.90;;;;;;6294186;22;20007;-68
2022/05/15 06:09:42;;;;;;;2.20;1.55;;;17.80;99.00;;;;;;6293017;22;20082;-69
2022/05/15 06:12:09;;;;;;;5.53;1.77;;;18.00;98.60;;;;;;6290606;22;20011;-70
2022/05/15 06:14:35;;;;;;;1.88;1.10;;;18.30;98.20;;;;;;6292932;22;20474;-70
2022/05/15 06:17:00;;;;;;;3.97;1.25;;;18.50;97.70;;;;;;6292017;22;20015;-70
2022/05/15 06:19:26;;;;;;;1.88;1.02;;;18.80;96.20;;;;;;6294236;22;20011;-70
2022/05/15 06:21:52;;;;;;;3.25;1.00;;;19.00;94.70;;;;;;6293691;22;20003;-69
2022/05/15 06:24:18;;;;;;;6.15;2.00;;;19.20;94.70;;;;;;6291342;22;20086;-70
2022/05/15 06:26:44;;;;;;;8.52;1.05;;;19.40;93.80;;;;;;6294549;22;20007;-70
2022/05/15 06:29:10;;;;;;;2.92;0.93;;;19.60;92.60;;;;;;6295157;22;20543;-70
2022/05/15 06:31:35;;;;;;;3.20;1.15;;;19.70;91.20;;;;;;6292358;22;20098;-69
2022/05/15 06:34:01;;;;;;;3.63;1.13;;;19.80;90.30;;;;;;6296674;22;20340;-69
2022/05/15 06:36:26;;;;;;;4.18;1.02;;;20.10;90.90;;;;;;6292311;22;20345;-70
2022/05/15 06:38:52;;;;;;;2.40;0.98;;;20.20;92.00;;;;;;6292155;22;20534;-70
2022/05/15 06:41:18;;;;;;;4.95;1.13;;;20.20;92.00;;;;;;6283915;22;20156;-68
2022/05/15 06:43:44;;;;;;;1.85;1.17;;;20.30;91.50;;;;;;6283806;22;20014;-70
2022/05/15 06:46:09;;;;;;;5.90;2.78;;;20.30;91.70;;;;;;6293347;22;20420;-70
2022/05/15 06:48:35;;;;;;;1.88;0.98;;;20.40;91.60;;;;;;6295800;22;20127;-69
2022/05/15 06:51:03;;;;;;;2.33;1.20;;;20.50;91.40;;;;;;6292423;22;20053;-69
2022/05/15 06:53:29;;;;;;;1.80;1.13;;;20.50;92.10;;;;;;6291569;22;20080;-71
2022/05/15 06:58:38;;;;;;;3.53;0.88;;;20.70;91.50;;;;;;6292627;22;20017;-72
2022/05/15 07:01:04;;;;;;;2.92;1.10;;;20.80;91.40;;;;;;6293075;22;20074;-76
2022/05/15 07:03:30;;;;;;;2.22;0.98;;;21.00;91.10;;;;;;6295112;22;20029;-76
2022/05/15 07:05:56;;;;;;;2.97;0.90;;;21.00;90.40;;;;;;6289991;22;20007;-76
2022/05/15 07:08:22;;;;;;;1.90;0.90;;;21.20;88.60;;;;;;6292568;22;20061;-75
2022/05/15 07:10:47;;;;;;;4.18;1.20;;;21.40;86.70;;;;;;6290850;22;20340;-77
2022/05/15 07:13:13;;;;;;;35.00;2.00;;;21.50;86.00;;;;;;6291685;22;20443;-76
2022/05/15 07:15:39;;;;;;;5.80;1.35;;;21.60;89.30;;;;;;6289065;22;20080;-76
2022/05/15 07:18:06;;;;;;;2.75;1.20;;;21.70;84.60;;;;;;6294638;22;20004;-76
2022/05/15 07:20:33;;;;;;;3.67;1.25;;;21.80;83.20;;;;;;6293186;22;20017;-78
2022/05/15 07:22:59;;;;;;;1.33;0.65;;;21.80;84.30;;;;;;6294232;22;20007;-77
2022/05/15 07:25:25;;;;;;;3.38;1.02;;;22.00;84.60;;;;;;6291747;22;20049;-78
2022/05/15 07:27:50;;;;;;;3.35;0.82;;;22.10;80.70;;;;;;6291969;22;20086;-78
2022/05/15 07:30:16;;;;;;;2.20;0.80;;;22.20;81.60;;;;;;6292467;22;20088;-77
2022/05/15 07:32:42;;;;;;;1.73;1.08;;;22.30;81.30;;;;;;6292841;22;20023;-77
2022/05/15 07:35:08;;;;;;;1.90;0.80;;;22.40;79.80;;;;;;6291571;22;20011;-72
2022/05/15 07:37:33;;;;;;;3.20;0.88;;;22.50;79.50;;;;;;6291300;22;20003;-71
2022/05/15 07:39:59;;;;;;;1.38;0.77;;;22.50;77.00;;;;;;6292518;22;20090;-70
2022/05/15 07:42:25;;;;;;;4.97;1.20;;;22.60;75.90;;;;;;6290324;22;20448;-70
2022/05/15 07:44:54;;;;;;;4.18;1.08;;;22.70;76.20;;;;;;6291558;22;20611;-70
2022/05/15 07:47:20;;;;;;;1.95;0.88;;;22.80;73.50;;;;;;6290783;22;20010;-69
2022/05/15 07:49:45;;;;;;;7.57;1.38;;;22.70;72.20;;;;;;6289473;22;20011;-70
2022/05/15 07:52:11;;;;;;;4.80;0.93;;;22.60;74.30;;;;;;6292601;22;20675;-70
2022/05/15 07:54:37;;;;;;;6.50;2.05;;;22.60;72.10;;;;;;6290657;22;20016;-66
2022/05/15 07:57:04;;;;;;;2.47;1.20;;;22.50;72.50;;;;;;6290215;22;20083;-67
2022/05/15 07:59:29;;;;;;;5.88;1.55;;;22.60;74.20;;;;;;6293398;22;20038;-66
2022/05/15 08:01:55;;;;;;;4.25;1.52;;;22.70;73.20;;;;;;6290983;22;20034;-66
2022/05/15 08:04:24;;;;;;;2.28;1.08;;;22.80;71.10;;;;;;6293508;22;20362;-69
2022/05/15 08:09:34;;;;;;;4.43;1.10;;;22.90;71.40;;;;;;6292505;22;20419;-71
2022/05/15 08:12:00;;;;;;;4.38;1.00;;;22.90;70.60;;;;;;6288685;22;20082;-73
2022/05/15 08:14:28;;;;;;;2.75;0.90;;;22.90;69.20;;;;;;6287784;22;20092;-71
2022/05/15 08:16:53;;;;;;;2.65;1.00;;;23.00;67.50;;;;;;6291942;22;20384;-70
2022/05/15 08:24:48;;;;;;;2.58;1.00;;;23.30;60.40;;;;;;6286797;22;20018;-72
2022/05/15 08:27:14;;;;;;;2.88;0.90;;;23.20;58.60;;;;;;6291185;22;20031;-71
2022/05/15 08:29:40;;;;;;;3.10;1.00;;;23.20;58.00;;;;;;6294083;22;20014;-71
2022/05/15 08:32:07;;;;;;;8.80;1.17;;;23.30;60.50;;;;;;6291889;22;20533;-71
2022/05/15 08:34:34;;;;;;;9.00;1.17;;;23.50;60.40;;;;;;6292608;22;20471;-70
2022/05/15 08:37:03;;;;;;;1.75;1.20;;;23.60;59.80;;;;;;6293650;22;20014;-84
2022/05/15 08:39:30;;;;;;;2.72;0.80;;;23.80;59.60;;;;;;6292764;22;20004;-82
2022/05/15 08:42:14;;;;;;;4.00;0.85;;;23.80;57.50;;;;;;6288074;22;20011;-82
2022/05/15 08:44:44;;;;;;;3.90;1.17;;;23.70;55.60;;;;;;6293192;22;20449;-83
2022/05/15 08:47:35;;;;;;;2.35;0.88;;;23.70;53.50;;;;;;6292443;22;20005;-84
2022/05/15 08:50:16;;;;;;;1.80;0.75;;;23.70;56.00;;;;;;6293842;22;20377;-81
2022/05/15 08:52:45;;;;;;;1.92;1.00;;;23.60;57.00;;;;;;6296270;22;20006;-80
2022/05/15 08:55:16;;;;;;;2.67;0.93;;;23.60;56.10;;;;;;6293668;22;20425;-70
2022/05/15 08:58:00;;;;;;;6.18;0.95;;;23.60;55.70;;;;;;6291536;22;20050;-70
2022/05/15 09:00:38;;;;;;;3.65;1.13;;;23.60;57.80;;;;;;6293691;22;20034;-71
2022/05/15 09:03:15;;;;;;;2.63;0.65;;;23.60;56.70;;;;;;6292915;22;20064;-71
2022/05/15 09:05:59;;;;;;;3.15;1.00;;;23.70;54.60;;;;;;6296738;22;20369;-70
2022/05/15 09:08:37;;;;;;;32.53;4.57;;;23.70;57.90;;;;;;6291127;22;20014;-71
2022/05/15 09:11:07;;;;;;;2.25;0.90;;;23.70;56.90;;;;;;6294212;22;20075;-71
2022/05/15 09:13:50;;;;;;;6.50;1.00;;;23.80;56.20;;;;;;6294030;22;20538;-71
2022/05/15 09:16:22;;;;;;;3.35;0.80;;;23.90;55.00;;;;;;6296676;22;20015;-71
2022/05/15 09:18:48;;;;;;;4.68;1.00;;;24.00;56.70;;;;;;6294756;22;20865;-71
2022/05/15 09:21:15;;;;;;;1.77;0.80;;;24.10;57.60;;;;;;6294736;22;20106;-71
2022/05/15 09:23:48;;;;;;;3.08;0.93;;;24.20;57.90;;;;;;6295867;22;20435;-71
2022/05/15 09:26:27;;;;;;;6.75;1.33;;;24.20;56.80;;;;;;6292087;22;20003;-71
2022/05/15 09:28:55;;;;;;;1.73;0.80;;;24.10;54.20;;;;;;6297654;22;20072;-71
2022/05/15 09:31:42;;;;;;;3.15;1.20;;;24.10;52.60;;;;;;6296465;22;20049;-71
2022/05/15 09:34:28;;;;;;;2.85;0.95;;;24.00;56.30;;;;;;6298304;22;20003;-71
2022/05/15 09:38:26;;;;;;;2.88;0.80;;;24.10;57.60;;;;;;6296494;22;20015;-71
2022/05/15 09:39:50;;;;;;;1.92;0.90;;;24.10;58.20;;;;;;6298324;22;20087;-71
2022/05/15 09:45:17;;;;;;;10.45;1.10;;;24.40;57.10;;;;;;6294833;22;20065;-71
2022/05/15 09:48:01;;;;;;;3.20;0.90;;;24.40;56.60;;;;;;6296182;22;20059;-71
2022/05/15 09:50:41;;;;;;;3.80;1.73;;;24.40;58.80;;;;;;6295906;22;20007;-71
2022/05/15 09:53:28;;;;;;;2.78;1.25;;;24.50;60.10;;;;;;6294500;22;19999;-83
2022/05/15 09:55:58;;;;;;;3.00;0.93;;;24.50;58.00;;;;;;6294733;22;20093;-80
2022/05/15 09:58:24;;;;;;;3.63;1.55;;;24.60;58.20;;;;;;6295330;22;20002;-80
2022/05/15 10:00:50;;;;;;;1.33;0.90;;;24.60;57.40;;;;;;6297415;22;20011;-80
2022/05/15 10:03:25;;;;;;;3.47;1.15;;;24.50;56.50;;;;;;6293136;22;20114;-78
2022/05/15 10:06:08;;;;;;;1.80;0.82;;;24.50;57.20;;;;;;6290974;22;20078;-79
2022/05/15 10:08:34;;;;;;;3.05;1.10;;;24.40;58.10;;;;;;6293935;22;20103;-80
2022/05/15 10:11:06;;;;;;;3.58;1.17;;;24.40;57.50;;;;;;6295777;22;20033;-77
2022/05/15 10:13:37;;;;;;;3.50;1.00;;;24.30;56.70;;;;;;6298082;22;19999;-79
2022/05/15 10:16:21;;;;;;;3.30;1.05;;;24.30;55.50;;;;;;6296019;22;20007;-80
2022/05/15 10:18:58;;;;;;;2.55;0.95;;;24.40;56.20;;;;;;6296882;22;20007;-78
2022/05/15 10:21:29;;;;;;;3.75;1.00;;;24.50;57.00;;;;;;6296734;22;20007;-79
2022/05/15 10:24:04;;;;;;;1.30;0.85;;;24.50;57.60;;;;;;6294102;22;20098;-78
2022/05/15 10:26:58;;;;;;;6.30;1.15;;;24.50;58.70;;;;;;6296937;22;20034;-82
2022/05/15 10:29:36;;;;;;;2.90;1.25;;;24.50;58.30;;;;;;6300962;22;20086;-75
2022/05/15 10:32:29;;;;;;;2.30;0.90;;;24.50;54.30;;;;;;6292971;22;20011;-81
2022/05/15 10:34:55;;;;;;;;;;;24.30;55.90;;;;;;6293237;22;20015;-78
2022/05/15 10:37:41;;;;;;;3.75;1.10;;;24.30;56.70;;;;;;6290403;22;20330;-80
2022/05/15 10:40:10;;;;;;;3.17;1.15;;;24.40;59.60;;;;;;6286247;22;20007;-84
2022/05/15 10:42:58;;;;;;;4.55;1.10;;;24.50;53.60;;;;;;6293736;22;20003;-76
2022/05/15 10:45:44;;;;;;;8.20;1.10;;;24.30;55.30;;;;;;6293196;22;20014;-78
2022/05/15 10:48:19;;;;;;;4.95;1.23;;;24.30;53.00;;;;;;6289449;22;20069;-75
2022/05/15 10:51:16;;;;;;;2.08;1.00;;;24.40;56.50;;;;;;6295627;22;20080;-71
2022/05/15 10:57:25;;;;;;;1.75;0.98;;;24.80;57.00;;;;;;6293724;22;20467;-71
2022/05/15 11:00:19;;;;;;;2.38;1.00;;;24.80;57.00;;;;;;6228423;22;20007;-71
2022/05/15 11:03:29;;;;;;;2.60;1.00;;;24.90;57.10;;;;;;6295859;22;20015;-71
2022/05/15 11:06:12;;;;;;;4.10;1.10;;;25.10;55.90;;;;;;6235747;22;20038;-79
2022/05/15 11:08:55;;;;;;;1.23;1.02;;;25.10;55.60;;;;;;6294802;22;20007;-83
2022/05/15 11:11:30;;;;;;;1.20;0.82;;;24.90;54.10;;;;;;6290944;22;20186;-85
2022/05/15 11:14:08;;;;;;;2.40;0.90;;;24.90;55.50;;;;;;6290702;22;20007;-81
2022/05/15 11:17:07;;;;;;;3.53;1.38;;;24.90;56.40;;;;;;6294818;22;20094;-84
2022/05/15 11:19:39;;;;;;;4.70;1.15;;;25.10;53.40;;;;;;6288716;22;20735;-83
2022/05/15 11:22:04;;;;;;;;;;;25.00;53.70;;;;;;6292401;22;20007;-83
2022/05/15 11:24:36;;;;;;;2.08;0.95;;;24.80;54.00;;;;;;6288078;22;19903;-81
2022/05/15 11:27:30;;;;;;;3.60;1.20;;;24.80;52.70;;;;;;6294408;22;20021;-79
2022/05/15 11:29:59;;;;;;;3.10;1.20;;;24.60;53.60;;;;;;6241406;22;20019;-84
2022/05/15 12:15:46;;;;;;;2.70;1.00;;;25.10;54.50;;;;;;6319468;22;20026;-70
2022/05/15 12:18:22;;;;;;;2.80;1.00;;;25.20;51.20;;;;;;6323862;22;20402;-70
2022/05/15 12:20:51;;;;;;;3.28;0.95;;;25.10;54.00;;;;;;6323146;22;20011;-70
2022/05/15 12:23:23;;;;;;;4.32;1.25;;;25.30;54.20;;;;;;6324400;22;20006;-71
2022/05/15 12:26:07;;;;;;;2.22;0.98;;;25.30;54.30;;;;;;6325217;22;20006;-78
2022/05/15 12:28:51;;;;;;;1.27;0.75;;;25.30;53.90;;;;;;6326775;22;20562;-77
2022/05/15 12:31:21;;;;;;;2.42;1.00;;;25.20;53.60;;;;;;6328650;22;20274;-78
2022/05/15 12:33:49;;;;;;;4.53;1.20;;;25.20;53.30;;;;;;6325491;22;20010;-81
2022/05/15 12:36:33;;;;;;;2.72;0.90;;;25.20;54.50;;;;;;6326238;22;20043;-78
2022/05/15 12:39:00;;;;;;;4.43;1.13;;;25.20;53.30;;;;;;6329338;22;20049;-78
2022/05/15 12:41:38;;;;;;;2.15;1.10;;;25.20;54.50;;;;;;6324685;22;20014;-79
2022/05/15 12:44:08;;;;;;;2.45;0.77;;;25.30;51.10;;;;;;6326198;22;20495;-70
2022/05/15 12:46:54;;;;;;;3.03;0.95;;;25.30;51.00;;;;;;6328594;22;20007;-70
2022/05/15 12:49:34;;;;;;;2.58;0.90;;;25.30;49.50;;;;;;6329405;22;20007;-70
2022/05/15 12:52:19;;;;;;;6.38;0.98;;;25.30;49.50;;;;;;6327339;22;20010;-70
2022/05/15 12:54:54;;;;;;;3.95;1.10;;;25.40;48.90;;;;;;6329573;22;20072;-70
2022/05/15 12:57:19;;;;;;;1.45;0.93;;;25.40;51.60;;;;;;6329525;22;20011;-70
2022/05/15 12:59:48;;;;;;;1.92;1.10;;;25.40;53.40;;;;;;6328243;22;20011;-68
2022/05/15 13:02:30;;;;;;;4.75;0.90;;;25.50;52.70;;;;;;6321797;22;20610;-70
2022/05/15 13:04:57;;;;;;;3.05;1.00;;;25.60;54.30;;;;;;6323919;22;19999;-83
2022/05/15 13:07:35;;;;;;;1.98;1.10;;;25.70;53.30;;;;;;6324339;22;20003;-84
2022/05/15 13:10:13;;;;;;;1.98;0.90;;;25.70;52.20;;;;;;6329299;22;19999;-73
2022/05/15 13:12:57;;;;;;;3.60;0.95;;;25.60;49.60;;;;;;6324310;22;20195;-75
2022/05/15 13:15:26;;;;;;;2.63;0.98;;;25.50;48.90;;;;;;6327939;22;20408;-74
2022/05/15 13:17:54;;;;;;;1.98;0.80;;;25.50;51.50;;;;;;6327535;22;20504;-75
2022/05/15 13:20:22;;;;;;;3.60;1.25;;;25.60;52.40;;;;;;6324536;22;20424;-69
2022/05/15 13:22:54;;;;;;;5.88;1.27;;;25.70;53.10;;;;;;6324551;22;20026;-76
2022/05/15 13:25:20;;;;;;;3.25;0.73;;;25.80;52.60;;;;;;6324456;22;20108;-75
2022/05/15 13:27:46;;;;;;;4.35;1.15;;;26.00;53.70;;;;;;6320582;22;20026;-76
2022/05/15 13:30:19;;;;;;;3.95;1.55;;;26.10;53.50;;;;;;6325078;22;20011;-75
2022/05/15 13:32:46;;;;;;;2.72;0.85;;;26.10;50.10;;;;;;6326313;22;20475;-77
2022/05/15 13:35:14;;;;;;;2.15;1.05;;;26.10;51.00;;;;;;6323818;22;20011;-77
2022/05/15 13:37:43;;;;;;;3.58;1.10;;;26.10;51.20;;;;;;6318543;22;20086;-79
2022/05/15 13:45:54;;;;;;;5.00;1.20;;;25.80;49.60;;;;;;6325191;22;20033;-68
2022/05/15 13:48:20;;;;;;;2.67;0.95;;;25.70;48.60;;;;;;6323768;22;19998;-80
2022/05/15 13:50:56;;;;;;;2.35;1.00;;;25.70;51.40;;;;;;6325916;22;20097;-76
2022/05/15 13:53:30;;;;;;;2.35;0.93;;;25.80;50.10;;;;;;6328262;22;20357;-77
2022/05/15 13:56:01;;;;;;;6.78;1.17;;;25.80;53.60;;;;;;6321868;22;20083;-76
2022/05/15 13:58:49;;;;;;;4.43;1.15;;;25.90;51.40;;;;;;6326706;22;20048;-75
2022/05/15 14:01:19;;;;;;;4.15;1.08;;;25.80;52.40;;;;;;6324839;22;20014;-80
2022/05/15 14:03:45;;;;;;;3.25;0.98;;;25.70;52.90;;;;;;6324203;22;19991;-78
2022/05/15 14:06:16;;;;;;;3.13;1.00;;;25.80;52.30;;;;;;6323571;22;20037;-78
2022/05/15 14:09:11;;;;;;;2.25;1.00;;;25.70;52.60;;;;;;6329101;22;19998;-77
2022/05/15 14:11:46;;;;;;;8.15;1.27;;;25.60;51.70;;;;;;6320817;22;20146;-79